Portada
METAR-TAF:

METAR-TAF

Aeroports :

Manihiki, Illes Cook

latitud: 10-22-50S, longitud: 160-59-59W, altitud: 2 m

Observació

L'informe es va fer fa 26 minuts, a les 16:00 UTC
Vent 2 kt del Nord
Temperatura 29°C
Humitat 89%
Pressió 1005 hPa

METAR: NCMH 181600Z AUTO 01002KT //// ////// 29/27 Q1005

Hora: 06:26 (16:26 UTC)


TAF: manca

Observacions i pronòstics meteorològics de més de 4000 aeroports (METAR i TAF).

Les estacions disponibles són els punts grocs i vermells al mapa.

Posi el ratolí al punt desitjat per veure el nom de l'estació.

Feu clic per veure les observacions i els pronòstics meteorològics.

Per canviar el mapa: feu clic els botons verds amb una creu de color negre per apropar; al botó verd amb un guió per allunyar la imatge; o en les fletxes verdes per a mapes adjacents.


METAR-TAF: